Elizabeth City, NC

7:06 PM EDT on September 20, 2014 (GMT -0400)
Northeastern Regional | Change Station
CLOSE
Current Station
Airport
Location: Edenton,
Elevation: 20 ft
Nearby Weather Stations

Elev 20 ft 36.03 °N, 76.57 °W | Updated 11 minutes ago

Overcast
Overcast
71 °F
Feels Like 71 °F
N
6
Wind Variable Wind from NE

Today
High -- | Low -- °F
--% Chance of Precip.
Yesterday
High -- | Low -- °F
Precip. -- in
6:51 AM 7:04 PM
Waning Crescent, 10% visible
Pressure 30.02 in
Visibility 10.0 miles
Clouds Scattered Clouds 3800 ft
Scattered Clouds 4400 ft
Scattered Clouds 5000 ft
Dew Point 68 °F
Humidity 88%
Rainfall 0.27 in
Snow Depth Not available.
UV 0 out of 12
Pollen 5.40 out of 12
Air Quality Not available.
Flu Activity Not available.
METAR KEDE 202255Z AUTO 04005KT 10SM SCT038 SCT044 SCT050 22/20 A3002 RMK AO2 T02190199

More Conditions Fewer Conditions

Pressure 30.02 in
Visibility 10.0 miles
Clouds Scattered Clouds 3800 ft
Scattered Clouds 4400 ft
Scattered Clouds 5000 ft
Dew Point 68 °F
Humidity 88%
Rainfall 0.27 in
Snow Depth Not available.
UV 0 out of 12
Pollen 5.40 out of 12
Air Quality Not available.
Flu Activity Not available.
METAR KEDE 202255Z AUTO 04005KT 10SM SCT038 SCT044 SCT050 22/20 A3002 RMK AO2 T02190199

More Conditions Fewer Conditions

10-Day Weather Forecast

Almanac

Astronomy

Sep. 20, 2014 Rise Set
Actual Time 6:51 AM EDT 7:04 PM EDT
Civil Twilight 6:25 AM EDT 7:30 PM EDT
Nautical Twilight 5:55 AM EDT 8:00 PM EDT
Astronomical Twilight 5:24 AM EDT 8:30 PM EDT
Moon 3:33 AM EDT 5:02 PM EDT
Length of Visible Light 13h 04m
Length of Day
12h 13m
Tomorrow will be 2m 17s shorter.
Waning Crescent, 10% of the Moon is Illuminated
Today
Waning Crescent
Sep 24
New
Oct 1
First Quarter
Oct 8
Full
Oct 15
Last Quarter

Today's Extremes

State Highs State Lows

Community

WunderPhotos

Upload Photos

1,754,972 photos uploaded!

WunderBlogs® & News

Nearby

Snow Depth

Station Depth Elevation
No new snow has been reported.

Earthquake Activity

City Distance Mag. Time & Date
No recent earthquake activity has been reported nearby.
Minimum magnitude displayed is 2.5.

Coastal Water Temperatures

Place Temperature
Oregon Inlet Marina, NC 73.0 °F
Duck Pier, NC 73.9 °F
Hatteras, NC 73.0 °F
Money Point, VA 79.0 °F
Chesapeake Bay Bridge Tunnel, VA 75.0 °F

Nearby Weather Stations